Time;durP1;ratioP1;P1;durP2;ratioP2;P2;SDS_P1;SDS_P2;PMS_P1;PMS_P2;Temp;Humidity;BMP_temperature;BMP_pressure;BME280_temperature;BME280_humidity;BME280_pressure;Samples;Min_cycle;Max_cycle;Signal;HPM_P1;HPM_P2
2023/07/09 00:00:49;;;;;;;9.27;6.50;;;;;;;-145.94;46.23;75752.34;5095350;28;20210;-67
2023/07/09 00:03:19;;;;;;;5.43;5.33;;;;;;;-145.94;46.92;75760.50;5097020;28;20186;-67
2023/07/09 00:05:48;;;;;;;6.27;5.77;;;;;;;-145.94;47.24;75766.63;5096987;28;20620;-67
2023/07/09 00:08:27;;;;;;;9.63;6.43;;;;;;;-145.94;47.35;75772.72;5097266;28;20584;-67
2023/07/09 00:10:55;;;;;;;7.10;6.40;;;;;;;-145.94;47.35;75764.56;5096586;28;20255;-67
2023/07/09 00:13:23;;;;;;;5.70;5.47;;;;;;;-145.94;47.53;75770.69;5096578;28;20683;-67
2023/07/09 00:15:50;;;;;;;5.50;5.40;;;;;;;-145.94;47.84;75768.66;5096860;28;20277;-67
2023/07/09 00:18:17;;;;;;;6.03;5.83;;;;;;;-145.94;47.57;75774.78;5097079;28;20640;-67
2023/07/09 00:20:43;;;;;;;5.80;5.60;;;;;;;-145.94;47.47;75782.94;5078413;28;20752;-67
2023/07/09 00:23:13;;;;;;;6.57;6.07;;;;;;;-145.94;47.48;75782.94;5096348;28;20190;-67
2023/07/09 00:25:43;;;;;;;7.37;7.00;;;;;;;-145.94;47.46;75793.13;5096585;28;20174;-67
2023/07/09 00:28:17;;;;;;;6.73;6.43;;;;;;;-145.94;47.39;75795.16;5096569;28;20206;-67
2023/07/09 00:30:48;;;;;;;6.47;6.07;;;;;;;-145.94;48.00;75801.28;5078147;28;20223;-67
2023/07/09 00:33:18;;;;;;;7.07;6.77;;;;;;;-145.94;48.29;75813.50;5097059;28;20578;-67
2023/07/09 00:35:46;;;;;;;6.63;6.43;;;;;;;-145.94;48.62;75825.75;5096186;28;20197;-67
2023/07/09 00:38:17;;;;;;;6.47;6.27;;;;;;;-145.94;48.88;75831.84;5077972;28;20196;-67
2023/07/09 00:41:08;;;;;;;5.30;5.20;;;;;;;-145.94;48.82;75827.78;5077866;28;20756;-67
2023/07/09 00:43:36;;;;;;;6.17;6.03;;;;;;;-145.94;48.70;75831.84;5096182;28;20571;-67
2023/07/09 00:46:24;;;;;;;6.13;5.93;;;;;;;-145.94;48.82;75835.94;5095953;28;20239;-67
2023/07/09 00:49:08;;;;;;;6.50;6.17;;;;;;;-145.94;48.91;75837.97;5077715;28;20202;-67
2023/07/09 00:51:41;;;;;;;9.77;6.63;;;;;;;-145.94;49.12;75837.97;5096074;28;20216;-67
2023/07/09 00:54:23;;;;;;;6.10;5.80;;;;;;;-145.94;49.38;75850.19;5095847;28;20166;-67
2023/07/09 00:56:53;;;;;;;6.73;6.33;;;;;;;-145.94;49.49;75856.31;5096059;28;20185;-67
2023/07/09 00:59:23;;;;;;;7.20;6.23;;;;;;;-145.94;49.61;75850.19;5095731;28;20547;-67
2023/07/09 01:01:51;;;;;;;7.13;6.47;;;;;;;-145.94;49.83;75854.28;5095754;28;20198;-67
2023/07/09 01:04:21;;;;;;;9.40;6.90;;;;;;;-145.94;49.71;75864.47;5096144;28;20192;-67
2023/07/09 01:06:51;;;;;;;7.47;6.97;;;;;;;-145.94;50.20;75876.69;5096098;28;20231;-67
2023/07/09 01:09:18;;;;;;;7.07;6.83;;;;;;;-145.94;50.97;75893.00;5095464;28;20237;-67
2023/07/09 01:11:45;;;;;;;7.10;6.90;;;;;;;-145.94;51.10;75909.31;5094195;28;20202;-67
2023/07/09 01:14:16;;;;;;;6.67;6.47;;;;;;;-145.94;50.76;75905.25;5077320;28;20190;-67
2023/07/09 01:16:48;;;;;;;6.03;5.93;;;;;;;-145.94;50.24;75911.38;5095695;28;20639;-67
2023/07/09 01:19:16;;;;;;;8.63;6.87;;;;;;;-145.94;50.33;75905.25;5095407;28;20178;-67
2023/07/09 01:21:43;;;;;;;7.17;6.87;;;;;;;-145.94;50.37;75903.22;5077046;28;20213;-67
2023/07/09 01:24:14;;;;;;;7.10;6.80;;;;;;;-145.94;50.14;75909.31;5077126;28;20679;-67
2023/07/09 01:26:40;;;;;;;6.73;6.53;;;;;;;-145.94;50.58;75909.31;5077082;28;20199;-67
2023/07/09 01:29:07;;;;;;;7.30;7.00;;;;;;;-145.94;50.71;75909.31;5076815;28;20784;-67
2023/07/09 01:31:35;;;;;;;6.57;6.37;;;;;;;-145.94;50.88;75913.41;5095197;28;20624;-67
2023/07/09 01:34:02;;;;;;;7.87;7.10;;;;;;;-145.94;51.42;75915.44;5076877;28;20201;-67
2023/07/09 01:36:31;;;;;;;7.10;6.43;;;;;;;-145.94;51.15;75925.63;5077037;28;20280;-67
2023/07/09 01:38:57;;;;;;;6.30;6.13;;;;;;;-145.94;51.03;75931.75;5094937;28;20239;-67
2023/07/09 01:41:24;;;;;;;8.10;7.37;;;;;;;-145.94;51.07;75925.63;5094842;28;20259;-67
2023/07/09 01:43:50;;;;;;;9.00;8.50;;;;;;;-145.94;51.99;75933.78;5077256;28;20196;-67
2023/07/09 01:46:17;;;;;;;8.97;8.20;;;;;;;-145.94;52.16;75939.91;5076714;28;20186;-67
2023/07/09 01:48:44;;;;;;;8.03;7.70;;;;;;;-145.94;52.33;75948.06;5094954;28;20202;-67
2023/07/09 01:51:16;;;;;;;9.37;8.90;;;;;;;-145.94;52.58;75950.09;5076451;28;20230;-67
2023/07/09 01:53:44;;;;;;;8.03;7.40;;;;;;;-145.94;53.02;75954.19;5095000;28;20178;-67
2023/07/09 01:56:10;;;;;;;8.63;8.07;;;;;;;-145.94;53.19;75960.28;5094884;28;20208;-67
2023/07/09 01:58:41;;;;;;;6.73;6.50;;;;;;;-145.94;53.68;75962.34;5076522;28;20185;-67
2023/07/09 02:01:10;;;;;;;8.17;7.97;;;;;;;-145.94;53.67;75972.53;5076322;28;20244;-67
2023/07/09 02:03:36;;;;;;;8.93;8.43;;;;;;;-145.94;53.53;75970.47;5094479;28;20185;-67
2023/07/09 02:06:09;;;;;;;8.77;8.27;;;;;;;-145.94;53.66;75974.56;5094961;28;20185;-67
2023/07/09 02:08:36;;;;;;;7.67;7.30;;;;;;;-145.94;53.50;75974.56;5094582;28;20224;-67
2023/07/09 02:11:03;;;;;;;12.87;9.13;;;;;;;-145.94;53.58;75980.69;5077280;28;20274;-67
2023/07/09 02:13:29;;;;;;;9.20;8.63;;;;;;;-145.94;53.64;75986.78;5097264;28;20196;-67
2023/07/09 02:15:56;;;;;;;7.90;7.63;;;;;;;-145.94;53.38;75990.88;5078528;28;20559;-67
2023/07/09 02:18:22;;;;;;;8.47;7.67;;;;;;;-145.94;53.33;75997.00;5096515;28;20178;-67
2023/07/09 02:20:48;;;;;;;9.53;7.90;;;;;;;-145.94;53.50;76005.16;5096661;28;20255;-67
2023/07/09 02:23:15;;;;;;;7.83;7.53;;;;;;;-145.94;54.03;76009.22;5095136;28;20189;-67
2023/07/09 02:25:41;;;;;;;7.97;7.50;;;;;;;-145.94;54.22;76015.34;5075884;28;20544;-67
2023/07/09 02:28:08;;;;;;;8.30;7.90;;;;;;;-145.94;54.62;76023.50;5093954;28;20213;-67
2023/07/09 02:30:34;;;;;;;8.43;7.70;;;;;;;-145.94;54.56;76035.72;5075622;28;20198;-67
2023/07/09 02:33:03;;;;;;;8.87;8.30;;;;;;;-145.94;54.77;76043.88;5075760;28;20194;-67
2023/07/09 02:35:29;;;;;;;9.20;8.40;;;;;;;-145.94;55.11;76045.91;5093915;28;20217;-67
2023/07/09 02:37:55;;;;;;;8.43;7.73;;;;;;;-145.94;54.94;76054.06;5075704;28;20182;-67
2023/07/09 02:40:22;;;;;;;8.60;8.00;;;;;;;-145.94;55.17;76060.19;5094319;28;20239;-67
2023/07/09 02:42:49;;;;;;;8.97;8.20;;;;;;;-145.94;55.25;76056.13;5075622;28;20224;-67
2023/07/09 02:45:17;;;;;;;8.23;7.87;;;;;;;-145.94;55.07;76070.38;5075869;28;20228;-67
2023/07/09 02:47:43;;;;;;;7.40;7.10;;;;;;;-145.94;55.39;76062.22;5075515;28;20656;-67
2023/07/09 02:50:10;;;;;;;8.43;8.10;;;;;;;-145.94;55.61;76076.50;5075487;28;20235;-67
2023/07/09 02:52:37;;;;;;;8.93;8.33;;;;;;;-145.94;55.67;76080.56;5075497;28;20217;-67
2023/07/09 02:55:04;;;;;;;8.97;8.17;;;;;;;-145.94;55.76;76082.63;5094192;28;20243;-67
2023/07/09 02:57:31;;;;;;;8.07;7.93;;;;;;;-145.94;56.07;76080.56;5094138;28;20231;-67
2023/07/09 02:59:57;;;;;;;7.43;7.23;;;;;;;-145.94;55.85;76092.81;5075535;28;20190;-67
2023/07/09 03:02:24;;;;;;;8.70;8.17;;;;;;;-145.94;55.82;76098.94;5075658;28;20209;-67
2023/07/09 03:04:50;;;;;;;9.70;8.83;;;;;;;-145.94;55.70;76100.97;5075422;28;20548;-67
2023/07/09 03:07:17;;;;;;;8.33;7.83;;;;;;;-145.94;55.96;76103.00;5093764;28;20182;-67
2023/07/09 03:09:43;;;;;;;7.90;7.60;;;;;;;-145.94;56.23;76103.00;5075210;28;20218;-67
2023/07/09 03:12:10;;;;;;;9.90;9.23;;;;;;;-145.94;56.37;76107.09;5093325;28;20621;-67
2023/07/09 03:14:36;;;;;;;8.90;8.53;;;;;;;-145.94;56.49;76113.19;5075099;28;20224;-67
2023/07/09 03:17:03;;;;;;;8.03;7.57;;;;;;;-145.94;56.55;76109.13;5093393;28;20189;-67
2023/07/09 03:19:30;;;;;;;7.47;7.23;;;;;;;-145.94;56.68;76115.25;5093337;28;20229;-67
2023/07/09 03:21:56;;;;;;;8.10;7.30;;;;;;;-145.94;56.42;76115.25;5093574;28;20206;-67
2023/07/09 03:24:22;;;;;;;10.57;9.07;;;;;;;-145.94;56.83;76121.34;5093298;28;20721;-67
2023/07/09 03:26:49;;;;;;;10.73;8.87;;;;;;;-145.94;56.86;76127.47;5075179;28;20205;-67
2023/07/09 03:29:15;;;;;;;9.07;8.33;;;;;;;-145.94;56.77;76135.63;5074989;28;20263;-67
2023/07/09 03:31:43;;;;;;;9.10;8.43;;;;;;;-145.94;56.92;76141.75;5075109;28;20214;-67
2023/07/09 03:34:09;;;;;;;9.23;8.83;;;;;;;-145.94;57.11;76147.84;5093443;28;20178;-67
2023/07/09 03:36:39;;;;;;;9.90;8.77;;;;;;;-145.94;57.38;76156.00;5078508;28;20204;-67
2023/07/09 03:39:06;;;;;;;8.87;8.17;;;;;;;-145.94;57.66;76153.97;5097555;28;20181;-67
2023/07/09 03:41:33;;;;;;;8.27;7.87;;;;;;;-145.94;57.45;76151.94;5097178;28;20703;-67
2023/07/09 03:44:00;;;;;;;8.33;8.17;;;;;;;-145.94;57.68;76158.06;5097459;28;20238;-67
2023/07/09 03:46:26;;;;;;;8.07;7.73;;;;;;;-145.94;57.79;76156.00;5097427;28;20185;-67
2023/07/09 03:48:53;;;;;;;10.20;8.30;;;;;;;-145.94;57.85;76158.06;5096972;28;20205;-67
2023/07/09 03:51:19;;;;;;;9.17;8.67;;;;;;;-145.94;58.12;76162.13;5097284;28;20594;-67
2023/07/09 03:53:46;;;;;;;8.97;8.17;;;;;;;-145.94;58.32;76158.06;5097031;28;20186;-67
2023/07/09 03:56:12;;;;;;;8.73;8.17;;;;;;;-145.94;58.31;76162.13;5097210;28;20186;-67
2023/07/09 03:58:38;;;;;;;8.63;7.97;;;;;;;-145.94;58.19;76164.16;5097161;28;20648;-67
2023/07/09 04:01:05;;;;;;;8.57;8.07;;;;;;;-145.94;57.99;76164.16;5097242;28;20210;-67
2023/07/09 04:03:31;;;;;;;8.27;7.83;;;;;;;-145.94;57.91;76170.28;5097329;28;20182;-67
2023/07/09 04:05:58;;;;;;;9.13;8.40;;;;;;;-145.94;58.07;76170.28;5096728;28;20186;-67
2023/07/09 04:08:25;;;;;;;8.97;8.10;;;;;;;-145.94;58.11;76166.22;5096808;28;20218;-67
2023/07/09 04:10:59;;;;;;;8.17;7.87;;;;;;;-145.94;58.21;76168.25;5096861;28;20201;-67
2023/07/09 04:13:27;;;;;;;8.80;8.43;;;;;;;-145.94;58.34;76166.22;5096932;28;20220;-67
2023/07/09 04:15:54;;;;;;;8.27;8.07;;;;;;;-145.94;58.51;76166.22;5096567;28;20201;-67
2023/07/09 04:18:21;;;;;;;11.70;8.37;;;;;;;-145.94;58.58;76170.28;5096527;28;20178;-67
2023/07/09 04:20:49;;;;;;;9.00;8.50;;;;;;;-145.94;58.71;76168.25;5096932;28;20202;-67
2023/07/09 04:23:17;;;;;;;9.40;8.57;;;;;;;-145.94;58.43;76170.28;5096702;28;20668;-67
2023/07/09 04:25:43;;;;;;;8.10;7.30;;;;;;;-145.94;58.57;76176.41;5096395;28;20235;-67
2023/07/09 04:28:09;;;;;;;8.30;7.83;;;;;;;-145.94;58.59;76180.47;5096746;28;20189;-67
2023/07/09 04:30:36;;;;;;;9.10;8.50;;;;;;;-145.94;58.82;76176.41;5096151;28;20303;-67
2023/07/09 04:33:02;;;;;;;8.80;8.30;;;;;;;-145.94;58.69;76170.28;5096228;28;20706;-67
2023/07/09 04:35:29;;;;;;;8.17;7.87;;;;;;;-145.94;58.42;76174.38;5096441;28;20213;-67
2023/07/09 04:37:55;;;;;;;10.03;8.57;;;;;;;-145.94;58.62;76162.13;5096149;28;20186;-67
2023/07/09 04:40:22;;;;;;;9.67;8.53;;;;;;;-145.94;58.62;76158.06;5095999;28;20194;-67
2023/07/09 04:42:48;;;;;;;7.80;7.37;;;;;;;-145.94;58.78;76151.94;5096611;28;20528;-67
2023/07/09 04:45:15;;;;;;;8.57;8.20;;;;;;;-145.94;58.98;76141.75;5096257;28;20248;-67
2023/07/09 04:47:41;;;;;;;8.93;8.07;;;;;;;-145.94;59.29;76143.78;5095962;28;20181;-66
2023/07/09 04:50:09;;;;;;;9.03;8.33;;;;;;;-145.94;59.64;76141.75;5095821;28;20206;-66
2023/07/09 04:52:35;;;;;;;16.47;9.00;;;;;;;-145.94;59.78;76131.56;5095836;28;20259;-66
2023/07/09 04:55:02;;;;;;;10.50;9.70;;;;;;;-145.94;59.62;76123.41;5095872;28;20186;-66
2023/07/09 04:57:28;;;;;;;9.23;8.17;;;;;;;-145.94;59.64;76109.13;5095853;28;20190;-66
2023/07/09 04:59:55;;;;;;;9.27;8.47;;;;;;;-145.94;59.59;76094.84;5095763;28;20318;-66
2023/07/09 05:02:23;;;;;;;17.20;9.10;;;;;;;-145.94;59.29;76078.53;5095926;28;20615;-66
2023/07/09 05:04:49;;;;;;;10.03;9.20;;;;;;;-145.94;58.91;76072.44;5095929;28;20213;-66
2023/07/09 05:07:16;;;;;;;10.17;9.17;;;;;;;-145.94;58.88;76060.19;5095925;28;20235;-66
2023/07/09 05:09:42;;;;;;;12.07;8.60;;;;;;;-145.94;58.81;76039.81;5096006;28;20251;-66
2023/07/09 05:12:09;;;;;;;14.43;8.87;;;;;;;-145.94;58.34;76035.72;5095457;28;20213;-66
2023/07/09 05:14:35;;;;;;;8.83;8.43;;;;;;;-145.94;57.79;76019.41;5095458;28;20591;-66
2023/07/09 05:17:02;;;;;;;9.23;8.57;;;;;;;-145.94;57.48;76011.25;5095433;28;20181;-66
2023/07/09 05:19:28;;;;;;;9.77;9.00;;;;;;;-145.94;57.46;76003.09;5095373;28;20189;-66
2023/07/09 05:21:55;;;;;;;8.30;7.70;;;;;;;-145.94;57.46;75999.03;5095360;28;20263;-67
2023/07/09 05:24:21;;;;;;;8.80;8.50;;;;;;;-145.94;56.87;75999.03;5096077;28;20204;-66
2023/07/09 05:26:49;;;;;;;9.47;8.97;;;;;;;-145.94;56.70;75984.75;5095723;28;20182;-66
2023/07/09 05:29:16;;;;;;;8.93;8.47;;;;;;;-145.94;56.40;75976.59;5095012;28;20213;-66
2023/07/09 05:31:42;;;;;;;9.73;9.00;;;;;;;-145.94;56.33;75966.41;5095220;28;20210;-67
2023/07/09 05:34:09;;;;;;;10.33;9.00;;;;;;;-145.94;56.22;75962.34;5095049;28;20190;-66
2023/07/09 05:36:35;;;;;;;10.30;8.47;;;;;;;-145.94;56.33;75952.13;5095033;28;20235;-66
2023/07/09 05:39:02;;;;;;;8.47;7.90;;;;;;;-145.94;56.89;75939.91;5095313;28;20575;-66
2023/07/09 05:41:29;;;;;;;9.47;8.87;;;;;;;-145.94;56.36;75927.66;5094847;28;20259;-66
2023/07/09 05:43:55;;;;;;;10.33;9.23;;;;;;;-145.94;56.01;75909.31;5094898;28;20238;-66
2023/07/09 05:46:22;;;;;;;10.20;9.50;;;;;;;-145.94;55.99;75903.22;5094805;28;20717;-66
2023/07/09 05:48:49;;;;;;;9.87;9.27;;;;;;;-145.94;56.12;75890.97;5094966;28;20214;-66
2023/07/09 05:51:16;;;;;;;10.27;9.30;;;;;;;-145.94;56.41;75878.75;5094695;28;20201;-66
2023/07/09 05:53:42;;;;;;;10.83;9.93;;;;;;;-145.94;56.31;75870.59;5094688;28;20186;-66
2023/07/09 05:56:09;;;;;;;10.97;10.10;;;;;;;-145.94;56.40;75854.28;5095153;28;20194;-66
2023/07/09 05:58:36;;;;;;;20.53;10.90;;;;;;;-145.94;56.04;75837.97;5075746;28;20193;-66
2023/07/09 06:01:03;;;;;;;10.97;9.87;;;;;;;-145.94;55.72;75819.63;5094518;28;20210;-66
2023/07/09 06:03:30;;;;;;;11.20;10.47;;;;;;;-145.94;55.52;75813.50;5095024;28;20273;-66
2023/07/09 06:05:57;;;;;;;10.83;10.00;;;;;;;-145.94;54.73;75789.03;5095276;28;20186;-66
2023/07/09 06:08:24;;;;;;;10.40;9.53;;;;;;;-145.94;54.00;75772.72;5094416;28;20186;-66
2023/07/09 06:10:55;;;;;;;11.13;10.13;;;;;;;-145.94;53.77;75758.47;5094280;28;20715;-67
2023/07/09 06:13:22;;;;;;;11.03;10.33;;;;;;;-145.94;53.68;75740.13;5094901;28;20223;-66
2023/07/09 06:15:50;;;;;;;10.00;9.50;;;;;;;-145.94;53.22;75731.97;5094273;28;20686;-66
2023/07/09 06:18:17;;;;;;;10.30;9.73;;;;;;;-145.94;52.78;75717.69;5094269;28;20232;-66
2023/07/09 06:20:51;;;;;;;10.23;9.40;;;;;;;-145.94;52.87;75707.50;5094130;28;20198;-67
2023/07/09 06:23:19;;;;;;;10.63;9.50;;;;;;;-145.94;52.67;75701.38;5094710;28;20256;-67
2023/07/09 06:25:47;;;;;;;9.45;8.55;;;;;;;-145.94;52.44;75689.16;5094099;28;20199;-67
2023/07/09 06:28:20;;;;;;;8.10;7.77;;;;;;;-145.94;51.61;75681.00;5093969;28;20648;-67
2023/07/09 06:30:47;;;;;;;7.70;7.18;;;;;;;-145.94;51.21;75674.88;5094124;28;20263;-67
2023/07/09 06:33:15;;;;;;;8.50;7.75;;;;;;;-145.94;51.96;75658.56;5094281;28;20196;-67
2023/07/09 06:35:53;;;;;;;9.15;8.38;;;;;;;-145.94;52.44;75638.19;5093944;28;20201;-67
2023/07/09 06:38:20;;;;;;;11.50;7.90;;;;;;;-145.94;52.52;75619.84;5094495;28;20179;-67
2023/07/09 06:40:46;;;;;;;8.00;7.55;;;;;;;-145.94;52.15;75605.56;5094027;28;20615;-67
2023/07/09 06:43:13;;;;;;;7.97;7.55;;;;;;;-145.94;51.33;75599.44;5093860;28;20190;-67
2023/07/09 06:45:56;;;;;;;7.75;7.20;;;;;;;-145.94;50.85;75581.09;5075623;28;20190;-66
2023/07/09 06:48:24;;;;;;;10.73;8.43;;;;;;;-145.94;50.09;75570.91;5093778;28;20516;-66
2023/07/09 06:50:52;;;;;;;7.80;7.55;;;;;;;-145.94;49.84;75558.69;5093847;28;20683;-66
2023/07/09 06:53:20;;;;;;;8.00;7.45;;;;;;;-145.94;50.11;75550.53;5093884;28;20186;-66
2023/07/09 06:55:48;;;;;;;9.63;7.57;;;;;;;-145.94;50.13;75534.22;5093645;28;20181;-66
2023/07/09 06:58:19;;;;;;;9.85;8.82;;;;;;;-145.94;50.07;75526.06;5093551;28;20182;-66
2023/07/09 07:00:45;;;;;;;8.00;7.38;;;;;;;-145.94;50.13;75513.84;5094085;28;20202;-67
2023/07/09 07:03:12;;;;;;;7.70;7.35;;;;;;;-145.94;49.33;75501.59;5093506;28;20186;-67
2023/07/09 07:05:46;;;;;;;7.97;7.28;;;;;;;-145.94;48.60;75489.38;5093489;28;20256;-66
2023/07/09 07:08:15;;;;;;;8.20;7.47;;;;;;;-145.94;48.49;75479.19;5093500;28;20169;-66
2023/07/09 07:10:41;;;;;;;15.05;7.00;;;;;;;-145.94;48.27;75464.91;5093206;28;20297;-67
2023/07/09 07:13:10;;;;;;;7.35;6.78;;;;;;;-145.94;48.24;75454.72;5093390;28;20196;-67
2023/07/09 07:15:37;;;;;;;7.50;7.10;;;;;;;-145.94;48.04;75440.44;5093418;28;20231;-66
2023/07/09 07:18:05;;;;;;;10.27;7.65;;;;;;;-145.94;47.80;75424.13;5093647;28;20648;-66
2023/07/09 07:20:32;;;;;;;6.82;6.53;;;;;;;-145.94;47.83;75409.88;5093283;28;20565;-67
2023/07/09 07:22:58;;;;;;;6.70;6.40;;;;;;;-145.94;47.90;75399.69;5093306;28;20186;-67
2023/07/09 07:25:25;;;;;;;12.52;7.18;;;;;;;-145.94;46.51;75387.44;5093286;28;20185;-67
2023/07/09 07:27:53;;;;;;;7.32;6.70;;;;;;;-145.94;46.32;75381.34;5093794;28;20217;-67
2023/07/09 07:30:19;;;;;;;7.15;6.63;;;;;;;-145.94;46.15;75373.19;5093204;28;20579;-67
2023/07/09 07:32:48;;;;;;;6.95;6.50;;;;;;;-145.94;45.75;75354.84;5093206;28;20206;-66
2023/07/09 07:35:16;;;;;;;7.28;6.90;;;;;;;-145.94;46.12;75350.75;5094216;28;20582;-66
2023/07/09 07:37:43;;;;;;;6.82;6.43;;;;;;;-145.94;45.98;75344.63;5093420;28;20243;-66
2023/07/09 07:40:10;;;;;;;8.35;7.55;;;;;;;-145.94;46.08;75342.59;5093180;28;20564;-66
2023/07/09 07:42:37;;;;;;;14.52;7.25;;;;;;;-145.94;46.12;75334.44;5092948;28;20220;-67
2023/07/09 07:45:04;;;;;;;7.82;7.15;;;;;;;-145.94;45.14;75326.28;5093118;28;20239;-67
2023/07/09 07:47:30;;;;;;;6.28;6.05;;;;;;;-145.94;45.05;75322.22;5093669;28;20189;-67
2023/07/09 07:49:57;;;;;;;7.15;6.50;;;;;;;-145.94;44.31;75305.91;5092936;28;20198;-67
2023/07/09 07:52:24;;;;;;;6.70;6.40;;;;;;;-145.94;44.31;75287.56;5093048;28;20240;-67
2023/07/09 07:54:52;;;;;;;7.80;6.93;;;;;;;-145.94;44.25;75269.22;5092902;28;20186;-66
2023/07/09 07:57:18;;;;;;;8.88;6.55;;;;;;;-145.94;44.24;75254.94;5092891;28;20193;-66
2023/07/09 07:59:46;;;;;;;7.03;6.68;;;;;;;-145.94;42.95;75240.69;5093227;28;20190;-66
2023/07/09 08:02:14;;;;;;;7.22;6.43;;;;;;;-145.94;42.59;75222.34;5092935;28;20691;-66
2023/07/09 08:04:41;;;;;;;6.57;6.45;;;;;;;-145.94;43.13;75210.09;5093461;28;20187;-66
2023/07/09 08:07:09;;;;;;;9.10;7.30;;;;;;;-145.94;43.11;75199.91;5093462;28;20190;-66
2023/07/09 08:09:36;;;;;;;8.23;6.95;;;;;;;-145.94;42.61;75181.56;5092788;28;20202;-66
2023/07/09 08:12:09;;;;;;;7.97;7.25;;;;;;;-145.94;42.29;75165.25;5092767;28;20768;-66
2023/07/09 08:14:40;;;;;;;6.82;6.55;;;;;;;-145.94;42.19;75144.88;5093125;28;20185;-66
2023/07/09 08:17:08;;;;;;;7.75;7.45;;;;;;;-145.94;42.10;75136.72;5093070;28;20194;-66
2023/07/09 08:19:46;;;;;;;8.00;7.55;;;;;;;-145.94;41.88;75130.63;5092763;28;20182;-66
2023/07/09 08:22:12;;;;;;;11.52;8.23;;;;;;;-145.94;41.75;75118.38;5095230;28;20254;-66
2023/07/09 08:24:39;;;;;;;10.32;8.18;;;;;;;-145.94;42.13;75098.00;5096663;28;20204;-66
2023/07/09 08:27:09;;;;;;;8.15;7.63;;;;;;;-145.94;42.04;75091.88;5096385;28;20190;-66
2023/07/09 08:29:35;;;;;;;7.63;7.20;;;;;;;-145.94;41.32;75089.84;5096290;28;20209;-66
2023/07/09 08:32:03;;;;;;;8.07;7.32;;;;;;;-145.94;41.20;75081.69;5096226;28;20213;-66
2023/07/09 08:34:30;;;;;;;8.38;8.00;;;;;;;-145.94;41.43;75065.38;5096802;28;20196;-66
2023/07/09 08:36:56;;;;;;;7.72;7.05;;;;;;;-145.94;41.28;75045.00;5096245;28;20214;-66
2023/07/09 08:39:23;;;;;;;7.30;6.78;;;;;;;-145.94;40.52;75034.81;5096159;28;20596;-66
2023/07/09 08:42:03;;;;;;;7.43;6.78;;;;;;;-145.94;38.83;75016.47;5096590;28;20213;-67
2023/07/09 08:45:06;;;;;;;7.78;7.03;;;;;;;-145.94;39.51;75004.25;5096912;28;20173;-66
2023/07/09 08:47:51;;;;;;;7.55;6.57;;;;;;;-145.94;39.65;75000.16;5096040;28;20212;-66
2023/07/09 08:50:22;;;;;;;9.13;6.45;;;;;;;-145.94;39.43;74989.97;5096211;28;20200;-66
2023/07/09 08:52:51;;;;;;;7.10;6.57;;;;;;;-145.94;39.46;74975.69;5096491;28;20205;-66
2023/07/09 08:55:20;;;;;;;7.30;7.00;;;;;;;-145.94;38.38;74963.47;5095889;28;20231;-66
2023/07/09 08:57:52;;;;;;;6.95;6.40;;;;;;;-145.94;38.64;74947.16;5095740;28;20178;-66
2023/07/09 09:00:29;;;;;;;6.85;6.50;;;;;;;-145.94;38.74;74936.97;5096350;28;20216;-66
2023/07/09 09:02:59;;;;;;;7.35;6.65;;;;;;;-145.94;37.96;74928.81;5096034;28;20311;-67
2023/07/09 09:05:25;;;;;;;6.85;6.45;;;;;;;-145.94;38.50;74912.50;5095891;28;20620;-66
2023/07/09 09:08:21;;;;;;;6.55;6.28;;;;;;;-145.94;38.20;74900.28;5095920;28;20729;-66
2023/07/09 09:10:53;;;;;;;8.75;6.03;;;;;;;-145.94;38.16;74888.06;5095917;28;20218;-67
2023/07/09 09:13:25;;;;;;;6.47;6.05;;;;;;;-145.94;38.31;74873.78;5095838;28;20231;-66
2023/07/09 09:15:51;;;;;;;6.72;6.43;;;;;;;-145.94;38.60;74863.59;5095775;28;20178;-66
2023/07/09 09:18:25;;;;;;;6.60;6.05;;;;;;;-145.94;37.94;74853.41;5095377;28;20186;-66
2023/07/09 09:20:57;;;;;;;6.30;5.88;;;;;;;-145.94;36.67;74841.19;5095576;28;20208;-66
2023/07/09 09:23:35;;;;;;;6.28;5.97;;;;;;;-145.94;36.11;74839.16;5095342;28;20178;-66
2023/07/09 09:26:10;;;;;;;6.35;5.78;;;;;;;-145.94;37.70;74816.72;5095600;28;20227;-66
2023/07/09 09:28:38;;;;;;;6.05;5.85;;;;;;;-145.94;36.42;74812.66;5095818;28;20177;-66
2023/07/09 09:31:06;;;;;;;11.15;5.88;;;;;;;-145.94;35.73;74808.56;5095980;28;20209;-66
2023/07/09 09:33:41;;;;;;;5.78;5.57;;;;;;;-145.94;36.35;74806.53;5094025;28;20281;-66
2023/07/09 09:36:15;;;;;;;5.65;5.00;;;;;;;-145.94;35.79;74812.66;5095126;28;20173;-67
2023/07/09 09:38:43;;;;;;;6.72;5.70;;;;;;;-145.94;36.60;74820.81;5095254;28;20181;-67
2023/07/09 09:41:14;;;;;;;5.88;5.68;;;;;;;-145.94;37.39;74816.72;5094893;28;20209;-67
2023/07/09 09:43:43;;;;;;;9.65;5.40;;;;;;;-145.94;36.92;74810.59;5095205;28;20166;-67
2023/07/09 09:46:17;;;;;;;8.70;4.95;;;;;;;-145.94;35.88;74812.66;5094840;28;20240;-67
2023/07/09 09:48:46;;;;;;;5.85;5.63;;;;;;;-145.94;36.13;74808.56;5095090;28;20182;-67
2023/07/09 09:51:14;;;;;;;6.20;5.72;;;;;;;-145.94;36.20;74802.47;5094651;28;20213;-67
2023/07/09 09:53:51;;;;;;;6.28;4.75;;;;;;;-145.94;35.64;74782.06;5094722;28;20190;-66
2023/07/09 09:56:24;;;;;;;5.07;4.70;;;;;;;-145.94;36.49;74767.81;5094964;28;20211;-66
2023/07/09 09:58:55;;;;;;;5.63;4.65;;;;;;;-145.94;35.30;74753.53;5094940;28;20171;-67
2023/07/09 10:01:29;;;;;;;7.07;5.00;;;;;;;-145.94;34.62;74735.19;5094553;28;20680;-68
2023/07/09 10:03:58;;;;;;;4.65;4.55;;;;;;;-145.94;34.26;74714.81;5094862;28;20581;-67
2023/07/09 10:06:34;;;;;;;5.25;5.00;;;;;;;-145.94;34.46;74710.75;5094481;28;20182;-67
2023/07/09 10:09:34;;;;;;;4.40;4.20;;;;;;;-145.94;33.32;74692.41;5094473;28;20217;-68
2023/07/09 10:12:31;;;;;;;4.32;4.20;;;;;;;-145.94;33.65;74684.25;5094362;28;20270;-67
2023/07/09 10:15:33;;;;;;;3.92;3.92;;;;;;;-145.94;33.31;74686.28;5094911;28;20224;-67
2023/07/09 10:18:14;;;;;;;4.75;4.28;;;;;;;-145.94;33.33;74696.47;5094521;28;20220;-67
2023/07/09 10:20:51;;;;;;;4.68;4.18;;;;;;;-145.94;33.91;74696.47;5094605;28;20173;-68
2023/07/09 10:23:30;;;;;;;4.57;3.97;;;;;;;-145.94;33.65;74696.47;5094488;28;20196;-67
2023/07/09 10:26:13;;;;;;;3.95;3.85;;;;;;;-145.94;33.65;74686.28;5094420;28;20688;-67
2023/07/09 10:28:57;;;;;;;5.20;4.90;;;;;;;-145.94;33.67;74661.81;5094101;28;20182;-67
2023/07/09 10:31:54;;;;;;;4.97;4.65;;;;;;;-145.94;32.88;74641.44;5093916;28;20740;-67
2023/07/09 10:34:44;;;;;;;5.45;4.93;;;;;;;-145.94;32.71;74635.34;5094287;28;20219;-66
2023/07/09 10:37:53;;;;;;;7.72;4.45;;;;;;;-145.94;33.65;74619.03;5094272;28;20182;-67
2023/07/09 10:40:33;;;;;;;4.90;4.60;;;;;;;-145.94;32.46;74612.91;5056449;28;20227;-67
2023/07/09 10:43:02;;;;;;;7.20;4.70;;;;;;;-145.94;32.38;74608.84;5094105;28;20186;-66
2023/07/09 10:45:32;;;;;;;4.82;4.40;;;;;;;-145.94;32.99;74602.72;5093513;28;20185;-66
2023/07/09 10:48:05;;;;;;;5.47;5.05;;;;;;;-145.94;32.97;74596.59;5094093;28;20745;-66
2023/07/09 10:50:36;;;;;;;5.10;4.68;;;;;;;-145.94;32.71;74588.47;5093839;28;20564;-66
2023/07/09 10:53:25;;;;;;;4.32;4.03;;;;;;;-145.94;32.20;74582.34;5093727;28;20227;-66
2023/07/09 10:55:57;;;;;;;4.75;4.43;;;;;;;-145.94;32.03;74594.56;5093877;28;20530;-67
2023/07/09 10:58:30;;;;;;;4.38;3.95;;;;;;;-145.94;32.49;74588.47;5093918;28;20597;-67
2023/07/09 11:00:57;;;;;;;5.00;4.40;;;;;;;-145.94;32.72;74580.31;5093840;28;20197;-67
2023/07/09 11:03:38;;;;;;;4.60;4.30;;;;;;;-145.94;32.44;74578.25;5093569;28;20323;-67
2023/07/09 11:06:14;;;;;;;4.05;3.85;;;;;;;-145.94;33.04;74572.16;5094170;28;20178;-66
2023/07/09 11:08:41;;;;;;;4.72;4.53;;;;;;;-145.94;32.34;74568.06;5094035;28;20174;-66
2023/07/09 11:11:23;;;;;;;4.78;4.57;;;;;;;-145.94;32.34;74566.03;5093600;28;20210;-68
2023/07/09 11:14:00;;;;;;;4.45;4.20;;;;;;;-145.94;31.06;74551.78;5093724;28;20705;-67
2023/07/09 11:16:36;;;;;;;4.15;4.00;;;;;;;-145.94;32.00;74527.31;5093999;28;20170;-66
2023/07/09 11:19:06;;;;;;;4.28;3.85;;;;;;;-145.94;31.27;74513.06;5094001;28;20170;-67
2023/07/09 11:21:32;;;;;;;3.30;3.00;;;;;;;-145.94;29.44;74496.75;5093806;28;20554;-67
2023/07/09 11:24:02;;;;;;;5.53;3.10;;;;;;;-145.94;28.83;74486.56;5093535;28;20189;-67
2023/07/09 11:26:31;;;;;;;5.43;3.60;;;;;;;-145.94;29.46;74478.41;5093329;28;20178;-67
2023/07/09 11:29:06;;;;;;;2.97;2.88;;;;;;;-145.94;29.53;74474.31;5093423;28;20593;-67